createdAt,value
2022-08-17T00:00:49.437Z,100972.66
2022-08-17T00:03:28.588Z,100976.53
2022-08-17T00:06:08.617Z,100977.13
2022-08-17T00:08:49.234Z,100980.47
2022-08-17T00:11:22.824Z,100977.41
2022-08-17T00:14:00.935Z,100983.25
2022-08-17T00:16:56.677Z,100983.78
2022-08-17T00:19:29.942Z,100987.97
2022-08-17T00:22:34.522Z,100987.72
2022-08-17T00:24:54.962Z,100976.66
2022-08-17T00:27:26.926Z,100978.03
2022-08-17T00:29:59.003Z,100979.44
2022-08-17T00:33:11.926Z,100977.19
2022-08-17T00:35:39.247Z,100973.06
2022-08-17T00:38:12.199Z,100974.44
2022-08-17T00:40:50.517Z,100974.97
2022-08-17T00:43:28.821Z,100979.44
2022-08-17T00:46:06.614Z,100976.09
2022-08-17T00:48:39.096Z,100976.66
2022-08-17T00:51:20.150Z,100989.13
2022-08-17T00:54:18.871Z,100987.75
2022-08-17T00:57:04.396Z,100984.69
2022-08-17T00:59:41.705Z,100984.97
2022-08-17T01:02:15.335Z,100984.41
2022-08-17T01:04:49.352Z,100981.38
2022-08-17T01:07:23.425Z,100981.66
2022-08-17T01:09:55.488Z,100979.16
2022-08-17T01:12:28.601Z,100985.25
2022-08-17T01:15:00.567Z,100981.94
2022-08-17T01:17:33.602Z,100984.44
2022-08-17T01:20:05.867Z,100991.06
2022-08-17T01:22:38.030Z,100992.47
2022-08-17T01:25:11.576Z,101001.88
2022-08-17T01:27:43.899Z,100993.00
2022-08-17T01:30:57.829Z,100996.06
2022-08-17T01:33:11.441Z,100996.06
2022-08-17T01:35:43.459Z,100996.59
2022-08-17T01:38:17.144Z,100994.97
2022-08-17T01:41:07.018Z,100996.59
2022-08-17T01:43:53.783Z,100997.44
2022-08-17T01:46:31.045Z,101001.03
2022-08-17T01:49:08.294Z,101006.28
2022-08-17T01:51:41.463Z,101001.28
2022-08-17T01:54:17.230Z,101012.88
2022-08-17T01:56:51.335Z,101003.47
2022-08-17T01:59:23.293Z,101002.06
2022-08-17T02:01:55.291Z,100996.00
2022-08-17T02:04:27.620Z,100999.88
2022-08-17T02:06:59.754Z,100991.84
2022-08-17T02:09:32.654Z,100994.06
2022-08-17T02:12:39.249Z,100991.56
2022-08-17T02:14:57.599Z,101000.13
2022-08-17T02:17:29.495Z,100993.22
2022-08-17T02:20:01.973Z,100998.19
2022-08-17T02:22:36.230Z,100999.28
2022-08-17T02:25:10.147Z,100999.56
2022-08-17T02:27:42.509Z,101002.34
2022-08-17T02:31:02.094Z,100993.22
2022-08-17T02:33:11.553Z,101002.59
2022-08-17T02:35:53.760Z,101003.16
2022-08-17T02:38:25.977Z,100999.81
2022-08-17T02:40:59.185Z,100996.53
2022-08-17T02:43:31.678Z,100995.97
2022-08-17T02:46:03.928Z,101001.50
2022-08-17T02:48:35.960Z,100998.72
2022-08-17T02:51:09.125Z,100997.06
2022-08-17T02:53:41.253Z,100981.28
2022-08-17T02:56:13.374Z,100989.84
2022-08-17T02:58:46.373Z,100989.84
2022-08-17T03:01:18.548Z,100993.75
2022-08-17T03:03:50.550Z,100998.44
2022-08-17T03:06:22.823Z,100992.34
2022-08-17T03:08:54.767Z,101000.38
2022-08-17T03:11:26.748Z,100999.81
2022-08-17T03:13:59.175Z,100991.50
2022-08-17T03:16:31.255Z,100993.44
2022-08-17T03:19:03.781Z,100991.78
2022-08-17T03:21:35.891Z,100998.69
2022-08-17T03:24:09.206Z,100992.88
2022-08-17T03:26:41.174Z,100996.75
2022-08-17T03:29:18.865Z,101006.41
2022-08-17T03:31:50.771Z,101003.09
2022-08-17T03:34:22.769Z,101002.53
2022-08-17T03:36:55.032Z,101001.69
2022-08-17T03:39:27.066Z,101001.16
2022-08-17T03:42:31.432Z,101002.25
2022-08-17T03:45:03.267Z,100999.75
2022-08-17T03:47:54.071Z,100998.38
2022-08-17T03:50:55.490Z,101000.56
2022-08-17T03:53:45.811Z,100995.84
2022-08-17T03:56:36.591Z,101000.75
2022-08-17T03:59:21.190Z,101003.25
2022-08-17T04:01:56.010Z,101006.81
2022-08-17T04:04:28.055Z,101002.38
2022-08-17T04:07:00.094Z,101003.78
2022-08-17T04:09:31.980Z,101008.47
2022-08-17T04:12:05.141Z,101007.88
2022-08-17T04:14:53.464Z,101009.56
2022-08-17T04:17:28.305Z,101007.38
2022-08-17T04:20:00.290Z,101005.16
2022-08-17T04:22:34.386Z,101009.31
2022-08-17T04:25:06.366Z,101004.63
2022-08-17T04:27:38.354Z,101004.63
2022-08-17T04:30:11.764Z,101009.31
2022-08-17T04:33:04.698Z,101008.47
2022-08-17T04:35:43.944Z,101016.78
2022-08-17T04:38:25.911Z,101014.00
2022-08-17T04:41:17.746Z,101014.00
2022-08-17T04:43:54.912Z,101019.53
2022-08-17T04:46:35.366Z,101019.53
2022-08-17T04:49:10.518Z,101019.53
2022-08-17T04:51:54.705Z,101021.19
2022-08-17T04:54:28.987Z,101023.69
2022-08-17T04:57:01.111Z,101015.97
2022-08-17T04:59:33.064Z,101025.63
2022-08-17T05:02:05.116Z,101019.03
2022-08-17T05:04:37.141Z,101017.94
2022-08-17T05:07:09.151Z,101019.63
2022-08-17T05:09:41.103Z,101021.28
2022-08-17T05:12:13.276Z,101025.69
2022-08-17T05:14:45.386Z,101025.44
2022-08-17T05:17:17.568Z,101027.94
2022-08-17T05:19:51.941Z,101035.97
2022-08-17T05:22:24.194Z,101029.03
2022-08-17T05:24:56.403Z,101032.09
2022-08-17T05:27:35.314Z,101031.28
2022-08-17T05:30:08.496Z,101032.41
2022-08-17T05:32:40.605Z,101033.78
2022-08-17T05:35:12.654Z,101036.31
2022-08-17T05:37:45.167Z,101036.84
2022-08-17T05:40:17.791Z,101037.69
2022-08-17T05:42:49.910Z,101037.41
2022-08-17T05:45:39.988Z,101045.16
2022-08-17T05:48:14.107Z,101044.88
2022-08-17T05:51:06.942Z,101043.78
2022-08-17T05:53:58.693Z,101047.09
2022-08-17T05:56:50.912Z,101049.59
2022-08-17T05:59:42.732Z,101049.06
2022-08-17T06:02:29.578Z,101046.84
2022-08-17T06:05:10.996Z,101056.00
2022-08-17T06:08:00.856Z,101057.38
2022-08-17T06:10:42.921Z,101059.63
2022-08-17T06:13:32.787Z,101065.69
2022-08-17T06:16:28.155Z,101056.91
2022-08-17T06:19:12.297Z,101059.97
2022-08-17T06:21:48.100Z,101058.88
2022-08-17T06:24:43.104Z,101048.06
2022-08-17T06:27:33.217Z,101050.84
2022-08-17T06:30:13.163Z,101046.72
2022-08-17T06:32:48.563Z,101056.41
2022-08-17T06:35:34.145Z,101052.53
2022-08-17T06:38:37.601Z,101056.97
2022-08-17T06:41:11.173Z,101056.97
2022-08-17T06:44:11.589Z,101061.09
2022-08-17T06:47:09.065Z,101060.03
2022-08-17T06:49:55.281Z,101058.09
2022-08-17T06:52:45.763Z,101057.50
2022-08-17T06:55:26.434Z,101065.81
2022-08-17T06:58:02.123Z,101056.31
2022-08-17T07:00:49.360Z,101053.53
2022-08-17T07:03:27.325Z,101062.31
2022-08-17T07:06:05.765Z,101061.19
2022-08-17T07:09:04.510Z,101057.56
2022-08-17T07:11:54.254Z,101057.28
2022-08-17T07:14:48.438Z,101056.19
2022-08-17T07:17:22.529Z,101066.69
2022-08-17T07:20:23.161Z,101060.88
2022-08-17T07:23:24.414Z,101061.41
2022-08-17T07:26:08.038Z,101061.69
2022-08-17T07:28:41.182Z,101067.22
2022-08-17T07:31:17.117Z,101056.59
2022-08-17T07:34:04.574Z,101055.47
2022-08-17T07:36:36.690Z,101064.56
2022-08-17T07:39:09.759Z,101054.50
2022-08-17T07:41:57.430Z,101061.91
2022-08-17T07:44:30.893Z,101056.28
2022-08-17T07:47:21.730Z,101059.25
2022-08-17T07:49:53.807Z,101059.50
2022-08-17T07:52:50.966Z,101064.72
2022-08-17T07:55:35.392Z,101066.06
2022-08-17T07:58:07.753Z,101060.13
2022-08-17T08:00:39.927Z,101070.94
2022-08-17T08:03:23.707Z,101069.75
2022-08-17T08:06:02.239Z,101073.56
2022-08-17T08:08:42.429Z,101070.44
2022-08-17T08:11:16.563Z,101067.59
2022-08-17T08:13:52.745Z,101065.28
2022-08-17T08:16:29.254Z,101076.94
2022-08-17T08:19:02.075Z,101069.88
2022-08-17T08:21:50.582Z,101074.81
2022-08-17T08:24:48.062Z,101074.69
2022-08-17T08:27:49.660Z,101083.19
2022-08-17T08:30:22.512Z,101078.09
2022-08-17T08:33:27.200Z,101078.84
2022-08-17T08:36:10.146Z,101084.13
2022-08-17T08:38:47.457Z,101083.28
2022-08-17T08:41:44.908Z,101091.97
2022-08-17T08:45:00.719Z,101083.06
2022-08-17T08:47:55.297Z,101083.06
2022-08-17T08:50:42.967Z,101085.63
2022-08-17T08:53:43.767Z,101097.28
2022-08-17T08:56:28.377Z,101093.38
2022-08-17T08:59:04.355Z,101097.75
2022-08-17T09:01:44.193Z,101094.66
2022-08-17T09:04:44.965Z,101091.25
2022-08-17T09:07:57.367Z,101087.78
2022-08-17T09:10:35.317Z,101101.88
2022-08-17T09:13:16.944Z,101094.56
2022-08-17T09:15:57.316Z,101093.97
2022-08-17T09:19:03.367Z,101095.84
2022-08-17T09:21:48.493Z,101092.47
2022-08-17T09:24:25.934Z,101095.19
2022-08-17T09:27:03.153Z,101092.63
2022-08-17T09:29:40.412Z,101093.16
2022-08-17T09:32:21.460Z,101097.50
2022-08-17T09:35:00.249Z,101090.72
2022-08-17T09:37:41.889Z,101093.47
2022-08-17T09:40:39.814Z,101093.66
2022-08-17T09:43:35.856Z,101091.13
2022-08-17T09:46:16.841Z,101089.69
2022-08-17T09:48:55.428Z,101092.69
2022-08-17T09:51:40.552Z,101082.91
2022-08-17T09:54:44.667Z,101084.22
2022-08-17T09:57:47.514Z,101085.50
2022-08-17T10:00:27.909Z,101086.16
2022-08-17T10:03:25.401Z,101078.22
2022-08-17T10:06:14.459Z,101083.94
2022-08-17T10:08:55.410Z,101081.88
2022-08-17T10:12:01.281Z,101083.44
2022-08-17T10:14:55.898Z,101080.47
2022-08-17T10:17:53.417Z,101087.59
2022-08-17T10:20:33.256Z,101089.38
2022-08-17T10:23:35.140Z,101082.56
2022-08-17T10:26:21.240Z,101087.75
2022-08-17T10:29:03.912Z,101094.00
2022-08-17T10:31:45.556Z,101084.97
2022-08-17T10:34:45.721Z,101071.72
2022-08-17T10:37:33.926Z,101070.47
2022-08-17T10:40:47.144Z,101064.16
2022-08-17T10:43:37.278Z,101066.84
2022-08-17T10:46:30.831Z,101065.38
2022-08-17T10:49:21.598Z,101068.69
2022-08-17T10:51:58.803Z,101068.38
2022-08-17T10:54:41.091Z,101075.09
2022-08-17T10:57:46.774Z,101068.38
2022-08-17T11:00:18.872Z,101071.16
2022-08-17T11:02:53.314Z,101064.75
2022-08-17T11:05:34.566Z,101069.19
2022-08-17T11:08:40.749Z,101058.53
2022-08-17T11:11:34.540Z,101057.69
2022-08-17T11:14:11.142Z,101065.97
2022-08-17T11:16:53.411Z,101070.31
2022-08-17T11:20:06.908Z,101062.63
2022-08-17T11:22:47.800Z,101067.91
2022-08-17T11:25:22.662Z,101061.16
2022-08-17T11:28:06.891Z,101051.63
2022-08-17T11:30:41.759Z,101053.28
2022-08-17T11:33:36.720Z,101054.34
2022-08-17T11:36:18.345Z,101049.78
2022-08-17T11:38:57.947Z,101059.50
2022-08-17T11:41:48.910Z,101052.84
2022-08-17T11:44:37.851Z,101053.59
2022-08-17T11:48:23.852Z,101050.41
2022-08-17T11:51:12.745Z,101047.75
2022-08-17T11:53:45.807Z,101051.44
2022-08-17T11:56:35.013Z,101047.81
2022-08-17T11:59:36.470Z,101054.38
2022-08-17T12:02:32.907Z,101046.72
2022-08-17T12:05:26.094Z,101045.09
2022-08-17T12:08:12.439Z,101036.78
2022-08-17T12:11:01.077Z,101036.59
2022-08-17T12:13:43.956Z,101038.31
2022-08-17T12:16:17.562Z,101035.38
2022-08-17T12:19:02.503Z,101029.78
2022-08-17T12:21:48.881Z,101046.94
2022-08-17T12:24:39.481Z,101033.78
2022-08-17T12:27:13.254Z,101038.41
2022-08-17T12:29:45.702Z,101032.97
2022-08-17T12:32:20.245Z,101038.03
2022-08-17T12:34:52.529Z,101035.84
2022-08-17T12:37:32.293Z,101042.00
2022-08-17T12:40:17.987Z,101037.66
2022-08-17T12:43:05.329Z,101040.09
2022-08-17T12:45:42.101Z,101046.59
2022-08-17T12:48:23.003Z,101033.81
2022-08-17T12:51:02.904Z,101048.72
2022-08-17T12:53:38.456Z,101046.81
2022-08-17T12:56:12.164Z,101037.50
2022-08-17T12:58:54.150Z,101040.25
2022-08-17T13:01:26.264Z,101043.81
2022-08-17T13:04:00.201Z,101039.44
2022-08-17T13:06:34.781Z,101034.50
2022-08-17T13:09:21.390Z,101032.84
2022-08-17T13:11:59.562Z,101027.88
2022-08-17T13:14:31.641Z,101028.50
2022-08-17T13:17:09.886Z,101028.00
2022-08-17T13:19:49.880Z,101025.00
2022-08-17T13:22:25.979Z,101024.19
2022-08-17T13:25:08.457Z,101019.72
2022-08-17T13:27:42.281Z,101017.16
2022-08-17T13:30:23.417Z,101010.22
2022-08-17T13:32:57.258Z,101012.00
2022-08-17T13:35:44.160Z,101006.72
2022-08-17T13:38:47.074Z,100999.69
2022-08-17T13:41:34.987Z,101001.84
2022-08-17T13:44:37.173Z,101000.69
2022-08-17T13:47:18.647Z,101001.22
2022-08-17T13:49:51.224Z,100995.63
2022-08-17T13:52:45.146Z,100996.66
2022-08-17T13:55:22.092Z,100994.88
2022-08-17T13:58:00.925Z,100990.94
2022-08-17T14:00:39.567Z,100994.34
2022-08-17T14:03:12.175Z,100999.94
2022-08-17T14:05:46.070Z,100999.94
2022-08-17T14:08:20.173Z,100997.34
2022-08-17T14:10:58.183Z,101006.75
2022-08-17T14:13:30.227Z,100994.75
2022-08-17T14:16:02.308Z,100988.63
2022-08-17T14:18:55.644Z,100988.34
2022-08-17T14:21:26.439Z,100993.91
2022-08-17T14:23:58.529Z,100990.47
2022-08-17T14:26:30.852Z,100994.63
2022-08-17T14:29:02.946Z,100995.66
2022-08-17T14:31:37.543Z,100995.06
2022-08-17T14:34:10.746Z,100992.09
2022-08-17T14:36:45.514Z,100992.63
2022-08-17T14:39:20.936Z,100984.53
2022-08-17T14:41:53.244Z,100987.16
2022-08-17T14:44:25.233Z,100985.63
2022-08-17T14:46:57.300Z,100979.56
2022-08-17T14:49:30.206Z,100989.03
2022-08-17T14:52:02.293Z,100984.81
2022-08-17T14:54:34.736Z,100981.06
2022-08-17T14:57:33.223Z,100979.41
2022-08-17T15:00:00.210Z,100974.97
2022-08-17T15:02:44.377Z,100976.09
2022-08-17T15:05:17.425Z,100964.75
2022-08-17T15:07:49.803Z,100970.13
2022-08-17T15:10:22.198Z,100967.63
2022-08-17T15:12:54.493Z,100969.72
2022-08-17T15:15:27.210Z,100959.19
2022-08-17T15:18:00.065Z,100957.53
2022-08-17T15:20:33.224Z,100955.88
2022-08-17T15:23:06.972Z,100956.53
2022-08-17T15:25:39.001Z,100951.56
2022-08-17T15:28:12.149Z,100949.59
2022-08-17T15:30:45.131Z,100949.41
2022-08-17T15:33:23.979Z,100947.63
2022-08-17T15:36:01.654Z,100947.31
2022-08-17T15:38:36.750Z,100948.66
2022-08-17T15:41:13.667Z,100952.09
2022-08-17T15:43:47.565Z,100942.03
2022-08-17T15:46:22.093Z,100939.78
2022-08-17T15:48:58.876Z,100940.78
2022-08-17T15:51:32.871Z,100939.00
2022-08-17T15:54:19.046Z,100932.63
2022-08-17T15:56:54.207Z,100925.63
2022-08-17T15:59:27.104Z,100929.25
2022-08-17T16:03:15.300Z,100921.97
2022-08-17T16:04:53.318Z,100927.69
2022-08-17T16:07:26.959Z,100919.28
2022-08-17T16:09:59.086Z,100925.47
2022-08-17T16:12:31.289Z,100927.25
2022-08-17T16:15:05.334Z,100928.38
2022-08-17T16:17:39.802Z,100913.09
2022-08-17T16:20:20.223Z,100919.44
2022-08-17T16:22:54.523Z,100920.50
2022-08-17T16:25:50.328Z,100924.25
2022-08-17T16:28:29.877Z,100915.50
2022-08-17T16:31:09.365Z,100908.88
2022-08-17T16:33:41.769Z,100905.16
2022-08-17T16:36:13.703Z,100910.38
2022-08-17T16:38:46.721Z,100900.44
2022-08-17T16:41:38.801Z,100897.78
2022-08-17T16:44:21.437Z,100904.50
2022-08-17T16:46:53.700Z,100890.53
2022-08-17T16:49:36.929Z,100889.72
2022-08-17T16:52:10.712Z,100893.63
2022-08-17T16:54:44.506Z,100888.88
2022-08-17T16:57:17.574Z,100892.84
2022-08-17T16:59:51.498Z,100892.84
2022-08-17T17:02:32.092Z,100899.66
2022-08-17T17:05:13.090Z,100893.06
2022-08-17T17:07:55.665Z,100899.13
2022-08-17T17:10:40.715Z,100903.59
2022-08-17T17:13:21.560Z,100898.41
2022-08-17T17:16:12.404Z,100899.16
2022-08-17T17:19:07.968Z,100895.09
2022-08-17T17:22:12.219Z,100895.25
2022-08-17T17:25:10.922Z,100890.56
2022-08-17T17:27:43.245Z,100893.69
2022-08-17T17:30:27.718Z,100901.53
2022-08-17T17:33:06.895Z,100908.34
2022-08-17T17:35:57.571Z,100897.81
2022-08-17T17:38:34.291Z,100902.97
2022-08-17T17:41:13.565Z,100907.59
2022-08-17T17:43:49.421Z,100915.34
2022-08-17T17:46:29.092Z,100927.47
2022-08-17T17:49:01.442Z,100944.38
2022-08-17T17:52:06.745Z,100945.59
2022-08-17T17:54:56.539Z,100941.25
2022-08-17T17:57:54.533Z,100932.75
2022-08-17T18:00:35.499Z,100924.25
2022-08-17T18:03:34.724Z,100918.78
2022-08-17T18:06:08.108Z,100919.41
2022-08-17T18:08:52.805Z,100911.63
2022-08-17T18:11:44.202Z,100909.72
2022-08-17T18:14:40.135Z,100906.19
2022-08-17T18:17:12.623Z,100928.03
2022-08-17T18:19:47.054Z,100980.78
2022-08-17T18:22:21.825Z,101031.00
2022-08-17T18:24:58.766Z,101048.66
2022-08-17T18:27:37.521Z,101045.16
2022-08-17T18:30:12.270Z,101065.53
2022-08-17T18:32:46.544Z,101071.28
2022-08-17T18:35:18.534Z,101070.88
2022-08-17T18:37:53.860Z,101065.00
2022-08-17T18:40:35.745Z,101059.56
2022-08-17T18:43:14.225Z,101100.50
2022-08-17T18:45:48.902Z,101107.59
2022-08-17T18:48:20.892Z,101117.31
2022-08-17T18:50:58.351Z,101120.13
2022-08-17T18:53:41.133Z,101128.91
2022-08-17T18:56:16.061Z,101124.06
2022-08-17T18:59:12.540Z,101108.47
2022-08-17T19:02:21.627Z,101099.28
2022-08-17T19:05:10.035Z,101090.09
2022-08-17T19:07:46.940Z,101072.44
2022-08-17T19:10:26.023Z,101055.88
2022-08-17T19:13:12.621Z,101043.19
2022-08-17T19:16:14.001Z,101033.00
2022-08-17T19:18:58.650Z,101025.31
2022-08-17T19:21:36.317Z,101031.41
2022-08-17T19:24:13.072Z,101034.16
2022-08-17T19:26:57.656Z,101049.41
2022-08-17T19:29:54.394Z,101039.75
2022-08-17T19:32:29.916Z,101037.28
2022-08-17T19:35:03.231Z,101037.00
2022-08-17T19:37:54.752Z,101024.84
2022-08-17T19:40:58.812Z,101024.00
2022-08-17T19:44:13.771Z,101037.28
2022-08-17T19:47:17.227Z,101033.13
2022-08-17T19:50:41.690Z,101016.53
2022-08-17T19:54:03.744Z,101017.63
2022-08-17T19:56:49.129Z,101013.75
2022-08-17T19:59:48.983Z,101011.00
2022-08-17T20:02:29.037Z,101006.56
2022-08-17T20:05:25.648Z,101011.84
2022-08-17T20:08:14.757Z,101002.44
2022-08-17T20:10:54.838Z,101003.78
2022-08-17T20:13:33.975Z,100996.31
2022-08-17T20:16:07.073Z,100994.41
2022-08-17T20:18:52.466Z,100984.44
2022-08-17T20:21:46.422Z,100991.63
2022-08-17T20:24:28.578Z,100993.84
2022-08-17T20:27:16.621Z,100997.16
2022-08-17T20:30:13.049Z,100992.72
2022-08-17T20:32:56.675Z,100985.53
2022-08-17T20:35:39.110Z,100983.88
2022-08-17T20:38:33.336Z,100986.09
2022-08-17T20:41:11.821Z,100985.22
2022-08-17T20:44:05.277Z,100983.28
2022-08-17T20:46:37.920Z,100974.97
2022-08-17T20:49:41.364Z,100996.25
2022-08-17T20:52:17.725Z,100991.56
2022-08-17T20:54:55.884Z,100997.66
2022-08-17T20:57:33.459Z,100999.84
2022-08-17T21:00:25.253Z,100995.97
2022-08-17T21:03:21.982Z,100993.22
2022-08-17T21:05:59.895Z,100990.19
2022-08-17T21:08:41.329Z,100981.59
2022-08-17T21:11:58.247Z,100988.22
2022-08-17T21:14:59.725Z,100993.75
2022-08-17T21:17:50.334Z,100999.28
2022-08-17T21:21:03.734Z,101004.28
2022-08-17T21:23:49.593Z,101012.00
2022-08-17T21:26:38.924Z,101012.00
2022-08-17T21:29:31.256Z,101006.47
2022-08-17T21:32:05.250Z,101004.00
2022-08-17T21:34:43.693Z,101010.63
2022-08-17T21:37:38.140Z,101005.38
2022-08-17T21:40:10.739Z,101010.09
2022-08-17T21:42:50.578Z,101007.59
2022-08-17T21:45:29.697Z,101012.59
2022-08-17T21:48:15.005Z,101017.88
2022-08-17T21:50:57.516Z,101016.25
2022-08-17T21:53:44.686Z,101013.19
2022-08-17T21:56:28.322Z,101011.81
2022-08-17T21:59:06.572Z,101007.13
2022-08-17T22:01:41.398Z,101006.03
2022-08-17T22:04:33.627Z,100999.34
2022-08-17T22:07:11.399Z,101003.25
2022-08-17T22:09:48.115Z,101002.38
2022-08-17T22:12:22.166Z,101007.59
2022-08-17T22:15:04.111Z,101001.50
2022-08-17T22:17:46.297Z,101006.16
2022-08-17T22:20:20.010Z,101004.22
2022-08-17T22:23:13.270Z,100997.56
2022-08-17T22:26:03.981Z,101006.97
2022-08-17T22:28:49.453Z,101000.88
2022-08-17T22:31:24.630Z,100999.78
2022-08-17T22:34:02.215Z,100992.31
2022-08-17T22:36:35.120Z,100993.16
2022-08-17T22:39:08.298Z,100989.56
2022-08-17T22:42:00.181Z,100982.09
2022-08-17T22:44:38.449Z,100987.88
2022-08-17T22:47:19.062Z,100982.34
2022-08-17T22:49:54.698Z,100975.41
2022-08-17T22:52:58.683Z,100986.94
2022-08-17T22:55:50.437Z,100980.31
2022-08-17T22:58:42.689Z,100990.25
2022-08-17T23:01:27.775Z,100992.44
2022-08-17T23:04:05.935Z,100996.84
2022-08-17T23:06:40.206Z,100995.72
2022-08-17T23:09:12.188Z,100999.28
2022-08-17T23:11:50.025Z,101005.63
2022-08-17T23:14:22.581Z,101010.56
2022-08-17T23:16:54.619Z,101000.91
2022-08-17T23:19:28.356Z,101008.09
2022-08-17T23:22:04.150Z,101003.09
2022-08-17T23:24:42.364Z,100998.41
2022-08-17T23:27:14.479Z,101001.72
2022-08-17T23:29:47.146Z,100999.47
2022-08-17T23:32:19.247Z,101003.59
2022-08-17T23:34:51.243Z,101011.06
2022-08-17T23:37:23.199Z,101000.00
2022-08-17T23:39:55.383Z,101005.53
2022-08-17T23:42:28.614Z,101003.31
2022-08-17T23:45:01.225Z,101003.28
2022-08-17T23:47:33.149Z,101006.56
2022-08-17T23:50:05.737Z,101004.06
2022-08-17T23:52:37.870Z,101004.56
2022-08-17T23:55:10.433Z,101004.81
2022-08-17T23:57:42.816Z,101007.59
